Essex Fells, New Jersey
Current Conditions -  °F | °C
As of 11:53 PM on Thursday 27 Nov 2014 (Local Time) from KCDW Reporting Station
Clear Clear  
Wind Chill: 30°   Ceiling: Unl
Heat Index: 30°   Visibility: 10mi
Dew Point: 22°   Wind: 3mph
Humidity: 72%   Direction: 300°WNW
Pressure: 30.07"   Gusts: NA
Location:  40.82°N, 74.28°W
Report Text: KCDW 280453Z AUTO 30003KT 10SM CLR M01/M06 A3007 RMK AO2 SLP188 T10111056 400221011 TSNO
Loading
Personal Weather Stations






























Interactive Weather Map New forecast layout! Learn more

10-Day Weather Forecast

Advertisements
Track Severe Weather on mobile